sensor_id;sensor_type;location;lat;lon;timestamp;temperature;humidity
42365;DHT22;28498;54.400;18.566;2024-01-15T00:00:34;1.70;99.90
42365;DHT22;28498;54.400;18.566;2024-01-15T00:03:01;1.70;99.90
42365;DHT22;28498;54.400;18.566;2024-01-15T00:05:29;1.70;99.90
42365;DHT22;28498;54.400;18.566;2024-01-15T00:07:56;1.70;99.90
42365;DHT22;28498;54.400;18.566;2024-01-15T00:10:23;1.60;99.90
42365;DHT22;28498;54.400;18.566;2024-01-15T00:12:50;1.70;99.90
42365;DHT22;28498;54.400;18.566;2024-01-15T00:15:17;1.60;99.90
42365;DHT22;28498;54.400;18.566;2024-01-15T00:17:45;1.50;99.90
42365;DHT22;28498;54.400;18.566;2024-01-15T00:20:12;1.40;99.90
42365;DHT22;28498;54.400;18.566;2024-01-15T00:22:39;1.30;99.90
42365;DHT22;28498;54.400;18.566;2024-01-15T00:25:06;1.40;99.90
42365;DHT22;28498;54.400;18.566;2024-01-15T00:27:34;1.30;99.90
42365;DHT22;28498;54.400;18.566;2024-01-15T00:30:01;1.30;99.90
42365;DHT22;28498;54.400;18.566;2024-01-15T00:32:28;1.30;99.90
42365;DHT22;28498;54.400;18.566;2024-01-15T00:34:56;1.40;99.90
42365;DHT22;28498;54.400;18.566;2024-01-15T00:37:23;1.40;99.90
42365;DHT22;28498;54.400;18.566;2024-01-15T00:39:50;1.60;99.90
42365;DHT22;28498;54.400;18.566;2024-01-15T00:42:17;1.50;99.90
42365;DHT22;28498;54.400;18.566;2024-01-15T00:44:45;1.50;99.90
42365;DHT22;28498;54.400;18.566;2024-01-15T00:47:12;1.40;99.90
42365;DHT22;28498;54.400;18.566;2024-01-15T00:49:39;1.50;99.90
42365;DHT22;28498;54.400;18.566;2024-01-15T00:52:06;1.40;99.90
42365;DHT22;28498;54.400;18.566;2024-01-15T00:54:33;1.40;99.90
42365;DHT22;28498;54.400;18.566;2024-01-15T00:57:00;1.40;99.90
42365;DHT22;28498;54.400;18.566;2024-01-15T00:59:27;1.40;99.90
42365;DHT22;28498;54.400;18.566;2024-01-15T01:01:54;1.40;99.90
42365;DHT22;28498;54.400;18.566;2024-01-15T01:04:21;1.40;99.90
42365;DHT22;28498;54.400;18.566;2024-01-15T01:06:48;1.30;99.90
42365;DHT22;28498;54.400;18.566;2024-01-15T01:09:16;1.40;99.90
42365;DHT22;28498;54.400;18.566;2024-01-15T01:11:43;1.40;99.90
42365;DHT22;28498;54.400;18.566;2024-01-15T01:14:10;1.30;99.90
42365;DHT22;28498;54.400;18.566;2024-01-15T01:16:37;1.20;99.90
42365;DHT22;28498;54.400;18.566;2024-01-15T01:19:06;1.30;99.90
42365;DHT22;28498;54.400;18.566;2024-01-15T01:21:34;1.20;99.90
42365;DHT22;28498;54.400;18.566;2024-01-15T01:24:01;1.20;99.90
42365;DHT22;28498;54.400;18.566;2024-01-15T01:26:29;1.10;99.90
42365;DHT22;28498;54.400;18.566;2024-01-15T01:28:57;1.10;99.90
42365;DHT22;28498;54.400;18.566;2024-01-15T01:31:24;1.10;99.90
42365;DHT22;28498;54.400;18.566;2024-01-15T01:33:51;1.10;99.90
42365;DHT22;28498;54.400;18.566;2024-01-15T01:36:19;1.10;99.90
42365;DHT22;28498;54.400;18.566;2024-01-15T01:38:46;1.10;99.90
42365;DHT22;28498;54.400;18.566;2024-01-15T01:41:13;1.20;99.90
42365;DHT22;28498;54.400;18.566;2024-01-15T01:43:40;1.20;99.90
42365;DHT22;28498;54.400;18.566;2024-01-15T01:46:07;1.20;99.90
42365;DHT22;28498;54.400;18.566;2024-01-15T01:48:35;1.10;99.90
42365;DHT22;28498;54.400;18.566;2024-01-15T01:51:04;1.20;99.90
42365;DHT22;28498;54.400;18.566;2024-01-15T01:53:33;1.20;99.90
42365;DHT22;28498;54.400;18.566;2024-01-15T01:56:02;1.20;99.90
42365;DHT22;28498;54.400;18.566;2024-01-15T01:58:30;1.20;99.90
42365;DHT22;28498;54.400;18.566;2024-01-15T02:00:59;1.20;99.90
42365;DHT22;28498;54.400;18.566;2024-01-15T02:03:27;1.30;99.90
42365;DHT22;28498;54.400;18.566;2024-01-15T02:05:55;1.20;99.90
42365;DHT22;28498;54.400;18.566;2024-01-15T02:08:23;1.20;99.90
42365;DHT22;28498;54.400;18.566;2024-01-15T02:10:50;1.20;99.90
42365;DHT22;28498;54.400;18.566;2024-01-15T02:13:17;1.30;99.90
42365;DHT22;28498;54.400;18.566;2024-01-15T02:15:45;1.20;99.90
42365;DHT22;28498;54.400;18.566;2024-01-15T02:18:12;1.20;99.90
42365;DHT22;28498;54.400;18.566;2024-01-15T02:20:39;1.30;99.90
42365;DHT22;28498;54.400;18.566;2024-01-15T02:23:10;1.20;99.90
42365;DHT22;28498;54.400;18.566;2024-01-15T02:25:42;1.20;99.90
42365;DHT22;28498;54.400;18.566;2024-01-15T02:28:12;1.20;99.90
42365;DHT22;28498;54.400;18.566;2024-01-15T02:30:41;1.20;99.90
42365;DHT22;28498;54.400;18.566;2024-01-15T02:33:10;1.20;99.90
42365;DHT22;28498;54.400;18.566;2024-01-15T02:35:38;1.20;99.90
42365;DHT22;28498;54.400;18.566;2024-01-15T02:38:06;1.20;99.90
42365;DHT22;28498;54.400;18.566;2024-01-15T02:40:33;1.20;99.90
42365;DHT22;28498;54.400;18.566;2024-01-15T02:43:01;1.20;99.90
42365;DHT22;28498;54.400;18.566;2024-01-15T02:45:28;1.50;99.90
42365;DHT22;28498;54.400;18.566;2024-01-15T02:47:56;1.20;99.90
42365;DHT22;28498;54.400;18.566;2024-01-15T02:50:23;1.10;99.90
42365;DHT22;28498;54.400;18.566;2024-01-15T02:52:50;1.10;99.90
42365;DHT22;28498;54.400;18.566;2024-01-15T02:55:17;1.00;99.90
42365;DHT22;28498;54.400;18.566;2024-01-15T02:57:44;1.10;99.90
42365;DHT22;28498;54.400;18.566;2024-01-15T03:00:12;0.90;99.90
42365;DHT22;28498;54.400;18.566;2024-01-15T03:02:40;1.00;99.90
42365;DHT22;28498;54.400;18.566;2024-01-15T03:05:11;0.90;99.90
42365;DHT22;28498;54.400;18.566;2024-01-15T03:07:38;0.90;99.90
42365;DHT22;28498;54.400;18.566;2024-01-15T03:10:06;0.90;99.90
42365;DHT22;28498;54.400;18.566;2024-01-15T03:12:33;0.90;99.90
42365;DHT22;28498;54.400;18.566;2024-01-15T03:15:01;0.90;99.90
42365;DHT22;28498;54.400;18.566;2024-01-15T03:17:28;0.90;99.90
42365;DHT22;28498;54.400;18.566;2024-01-15T03:19:55;1.00;99.90
42365;DHT22;28498;54.400;18.566;2024-01-15T03:22:22;0.90;99.90
42365;DHT22;28498;54.400;18.566;2024-01-15T03:24:49;0.90;99.90
42365;DHT22;28498;54.400;18.566;2024-01-15T03:27:16;0.90;99.90
42365;DHT22;28498;54.400;18.566;2024-01-15T03:29:43;0.90;99.90
42365;DHT22;28498;54.400;18.566;2024-01-15T03:32:10;0.90;99.90
42365;DHT22;28498;54.400;18.566;2024-01-15T03:34:38;0.90;99.90
42365;DHT22;28498;54.400;18.566;2024-01-15T03:37:05;1.00;99.90
42365;DHT22;28498;54.400;18.566;2024-01-15T03:39:32;0.90;99.90
42365;DHT22;28498;54.400;18.566;2024-01-15T03:42:00;0.90;99.90
42365;DHT22;28498;54.400;18.566;2024-01-15T03:44:27;0.90;99.90
42365;DHT22;28498;54.400;18.566;2024-01-15T03:46:53;0.90;99.90
42365;DHT22;28498;54.400;18.566;2024-01-15T03:49:21;1.00;99.90
42365;DHT22;28498;54.400;18.566;2024-01-15T03:51:48;0.90;99.90
42365;DHT22;28498;54.400;18.566;2024-01-15T03:54:15;0.90;99.90
42365;DHT22;28498;54.400;18.566;2024-01-15T03:56:46;0.90;99.90
42365;DHT22;28498;54.400;18.566;2024-01-15T03:59:13;0.90;99.90
42365;DHT22;28498;54.400;18.566;2024-01-15T04:01:40;0.90;99.90
42365;DHT22;28498;54.400;18.566;2024-01-15T04:04:07;0.90;99.90
42365;DHT22;28498;54.400;18.566;2024-01-15T04:06:34;0.90;99.90
42365;DHT22;28498;54.400;18.566;2024-01-15T04:09:02;0.90;99.90
42365;DHT22;28498;54.400;18.566;2024-01-15T04:11:29;0.90;99.90
42365;DHT22;28498;54.400;18.566;2024-01-15T04:13:56;0.90;99.90
42365;DHT22;28498;54.400;18.566;2024-01-15T04:16:23;1.00;99.90
42365;DHT22;28498;54.400;18.566;2024-01-15T04:18:50;1.00;99.90
42365;DHT22;28498;54.400;18.566;2024-01-15T04:21:18;1.00;99.90
42365;DHT22;28498;54.400;18.566;2024-01-15T04:23:45;0.90;99.90
42365;DHT22;28498;54.400;18.566;2024-01-15T04:26:12;1.00;99.90
42365;DHT22;28498;54.400;18.566;2024-01-15T04:28:39;0.90;99.90
42365;DHT22;28498;54.400;18.566;2024-01-15T04:31:07;0.90;99.90
42365;DHT22;28498;54.400;18.566;2024-01-15T04:33:34;0.90;99.90
42365;DHT22;28498;54.400;18.566;2024-01-15T04:36:03;0.90;99.90
42365;DHT22;28498;54.400;18.566;2024-01-15T04:38:30;0.90;99.90
42365;DHT22;28498;54.400;18.566;2024-01-15T04:40:59;0.90;99.90
42365;DHT22;28498;54.400;18.566;2024-01-15T04:43:26;0.80;99.90
42365;DHT22;28498;54.400;18.566;2024-01-15T04:45:53;0.90;99.90
42365;DHT22;28498;54.400;18.566;2024-01-15T04:48:20;0.80;99.90
42365;DHT22;28498;54.400;18.566;2024-01-15T04:50:47;0.80;99.90
42365;DHT22;28498;54.400;18.566;2024-01-15T04:53:14;0.80;99.90
42365;DHT22;28498;54.400;18.566;2024-01-15T04:55:41;0.70;99.90
42365;DHT22;28498;54.400;18.566;2024-01-15T04:58:09;0.70;99.90
42365;DHT22;28498;54.400;18.566;2024-01-15T05:00:36;0.70;99.90
42365;DHT22;28498;54.400;18.566;2024-01-15T05:03:03;0.70;99.90
42365;DHT22;28498;54.400;18.566;2024-01-15T05:05:30;0.70;99.90
42365;DHT22;28498;54.400;18.566;2024-01-15T05:07:57;0.70;99.90
42365;DHT22;28498;54.400;18.566;2024-01-15T05:10:24;0.60;99.90
42365;DHT22;28498;54.400;18.566;2024-01-15T05:12:51;0.60;99.90
42365;DHT22;28498;54.400;18.566;2024-01-15T05:15:18;0.60;99.90
42365;DHT22;28498;54.400;18.566;2024-01-15T05:17:45;0.60;99.90
42365;DHT22;28498;54.400;18.566;2024-01-15T05:20:12;0.60;99.90
42365;DHT22;28498;54.400;18.566;2024-01-15T05:22:40;0.60;99.90
42365;DHT22;28498;54.400;18.566;2024-01-15T05:25:07;0.60;99.90
42365;DHT22;28498;54.400;18.566;2024-01-15T05:27:34;0.60;99.90
42365;DHT22;28498;54.400;18.566;2024-01-15T05:30:01;0.60;99.90
42365;DHT22;28498;54.400;18.566;2024-01-15T05:32:28;0.60;99.90
42365;DHT22;28498;54.400;18.566;2024-01-15T05:34:55;0.50;99.90
42365;DHT22;28498;54.400;18.566;2024-01-15T05:37:22;0.50;99.90
42365;DHT22;28498;54.400;18.566;2024-01-15T05:39:49;0.50;99.90
42365;DHT22;28498;54.400;18.566;2024-01-15T05:42:16;0.50;99.90
42365;DHT22;28498;54.400;18.566;2024-01-15T05:44:44;0.50;99.90
42365;DHT22;28498;54.400;18.566;2024-01-15T05:47:13;0.50;99.90
42365;DHT22;28498;54.400;18.566;2024-01-15T05:49:41;0.50;99.90
42365;DHT22;28498;54.400;18.566;2024-01-15T05:52:08;0.40;99.90
42365;DHT22;28498;54.400;18.566;2024-01-15T05:54:35;0.40;99.90
42365;DHT22;28498;54.400;18.566;2024-01-15T05:57:02;0.40;99.90
42365;DHT22;28498;54.400;18.566;2024-01-15T05:59:29;0.40;99.90
42365;DHT22;28498;54.400;18.566;2024-01-15T06:01:59;0.30;99.90
42365;DHT22;28498;54.400;18.566;2024-01-15T06:04:26;0.30;99.90
42365;DHT22;28498;54.400;18.566;2024-01-15T06:06:53;0.20;99.90
42365;DHT22;28498;54.400;18.566;2024-01-15T06:09:20;0.10;99.90
42365;DHT22;28498;54.400;18.566;2024-01-15T06:11:47;0.10;99.90
42365;DHT22;28498;54.400;18.566;2024-01-15T06:14:14;-0.10;99.90
42365;DHT22;28498;54.400;18.566;2024-01-15T06:16:41;0.00;99.90
42365;DHT22;28498;54.400;18.566;2024-01-15T06:19:08;0.10;99.90
42365;DHT22;28498;54.400;18.566;2024-01-15T06:21:35;-0.20;99.90
42365;DHT22;28498;54.400;18.566;2024-01-15T06:24:03;-0.10;99.90
42365;DHT22;28498;54.400;18.566;2024-01-15T06:26:30;-0.30;99.90
42365;DHT22;28498;54.400;18.566;2024-01-15T06:28:57;-0.30;99.90
42365;DHT22;28498;54.400;18.566;2024-01-15T06:31:24;-0.20;99.90
42365;DHT22;28498;54.400;18.566;2024-01-15T06:33:51;-0.20;99.90
42365;DHT22;28498;54.400;18.566;2024-01-15T06:36:18;-0.30;99.90
42365;DHT22;28498;54.400;18.566;2024-01-15T06:38:45;-0.40;99.90
42365;DHT22;28498;54.400;18.566;2024-01-15T06:41:12;-0.30;99.90
42365;DHT22;28498;54.400;18.566;2024-01-15T06:43:40;-0.30;99.90
42365;DHT22;28498;54.400;18.566;2024-01-15T06:46:07;-0.30;99.90
42365;DHT22;28498;54.400;18.566;2024-01-15T06:48:34;-0.40;99.90
42365;DHT22;28498;54.400;18.566;2024-01-15T06:51:02;-0.40;99.90
42365;DHT22;28498;54.400;18.566;2024-01-15T06:53:29;-0.30;99.90
42365;DHT22;28498;54.400;18.566;2024-01-15T06:55:56;-0.40;99.90
42365;DHT22;28498;54.400;18.566;2024-01-15T06:58:23;-0.30;99.90
42365;DHT22;28498;54.400;18.566;2024-01-15T07:00:50;-0.40;99.90
42365;DHT22;28498;54.400;18.566;2024-01-15T07:03:17;-0.50;99.90
42365;DHT22;28498;54.400;18.566;2024-01-15T07:05:45;-0.40;99.90
42365;DHT22;28498;54.400;18.566;2024-01-15T07:08:12;-0.40;99.90
42365;DHT22;28498;54.400;18.566;2024-01-15T07:10:39;-0.40;99.90
42365;DHT22;28498;54.400;18.566;2024-01-15T07:13:06;-0.50;99.90
42365;DHT22;28498;54.400;18.566;2024-01-15T07:15:33;-0.50;99.90
42365;DHT22;28498;54.400;18.566;2024-01-15T07:18:00;-0.40;99.90
42365;DHT22;28498;54.400;18.566;2024-01-15T07:20:27;-0.40;99.90
42365;DHT22;28498;54.400;18.566;2024-01-15T07:22:54;-0.30;99.90
42365;DHT22;28498;54.400;18.566;2024-01-15T07:25:22;-0.10;99.90
42365;DHT22;28498;54.400;18.566;2024-01-15T07:27:49;-0.10;99.90
42365;DHT22;28498;54.400;18.566;2024-01-15T07:30:16;0.00;99.90
42365;DHT22;28498;54.400;18.566;2024-01-15T07:32:43;0.00;99.90
42365;DHT22;28498;54.400;18.566;2024-01-15T07:35:10;0.20;99.90
42365;DHT22;28498;54.400;18.566;2024-01-15T07:37:38;-0.10;99.90
42365;DHT22;28498;54.400;18.566;2024-01-15T07:40:07;0.00;99.90
42365;DHT22;28498;54.400;18.566;2024-01-15T07:42:35;0.00;99.90
42365;DHT22;28498;54.400;18.566;2024-01-15T07:45:02;0.00;99.90
42365;DHT22;28498;54.400;18.566;2024-01-15T07:47:30;0.10;99.90
42365;DHT22;28498;54.400;18.566;2024-01-15T07:49:57;0.10;99.90
42365;DHT22;28498;54.400;18.566;2024-01-15T07:52:31;0.10;99.90
42365;DHT22;28498;54.400;18.566;2024-01-15T07:54:58;0.20;99.90
42365;DHT22;28498;54.400;18.566;2024-01-15T07:57:30;0.20;99.90
42365;DHT22;28498;54.400;18.566;2024-01-15T07:59:58;0.30;99.90
42365;DHT22;28498;54.400;18.566;2024-01-15T08:02:25;0.30;99.90
42365;DHT22;28498;54.400;18.566;2024-01-15T08:04:52;0.40;99.90
42365;DHT22;28498;54.400;18.566;2024-01-15T08:07:19;0.50;99.90
42365;DHT22;28498;54.400;18.566;2024-01-15T08:09:46;0.50;99.90
42365;DHT22;28498;54.400;18.566;2024-01-15T08:12:15;0.50;99.90
42365;DHT22;28498;54.400;18.566;2024-01-15T08:14:42;0.50;99.90
42365;DHT22;28498;54.400;18.566;2024-01-15T08:17:09;0.50;99.90
42365;DHT22;28498;54.400;18.566;2024-01-15T08:19:36;0.50;99.90
42365;DHT22;28498;54.400;18.566;2024-01-15T08:22:04;0.50;99.90
42365;DHT22;28498;54.400;18.566;2024-01-15T08:24:31;0.60;99.90
42365;DHT22;28498;54.400;18.566;2024-01-15T08:26:58;0.50;99.90
42365;DHT22;28498;54.400;18.566;2024-01-15T08:29:25;0.60;99.90
42365;DHT22;28498;54.400;18.566;2024-01-15T08:31:52;0.60;99.90
42365;DHT22;28498;54.400;18.566;2024-01-15T08:34:20;0.60;99.90
42365;DHT22;28498;54.400;18.566;2024-01-15T08:36:47;0.70;99.90
42365;DHT22;28498;54.400;18.566;2024-01-15T08:39:14;0.70;99.90
42365;DHT22;28498;54.400;18.566;2024-01-15T08:41:41;0.80;99.90
42365;DHT22;28498;54.400;18.566;2024-01-15T08:44:08;0.80;99.90
42365;DHT22;28498;54.400;18.566;2024-01-15T08:46:35;0.80;99.90
42365;DHT22;28498;54.400;18.566;2024-01-15T08:49:02;0.80;99.90
42365;DHT22;28498;54.400;18.566;2024-01-15T08:51:30;1.00;99.90
42365;DHT22;28498;54.400;18.566;2024-01-15T08:53:57;1.10;99.90
42365;DHT22;28498;54.400;18.566;2024-01-15T08:56:25;1.00;99.90
42365;DHT22;28498;54.400;18.566;2024-01-15T08:58:54;1.00;99.90
42365;DHT22;28498;54.400;18.566;2024-01-15T09:01:21;0.90;99.90
42365;DHT22;28498;54.400;18.566;2024-01-15T09:03:48;0.70;99.90
42365;DHT22;28498;54.400;18.566;2024-01-15T09:06:15;0.70;99.90
42365;DHT22;28498;54.400;18.566;2024-01-15T09:08:42;0.60;99.90
42365;DHT22;28498;54.400;18.566;2024-01-15T09:11:09;0.50;99.90
42365;DHT22;28498;54.400;18.566;2024-01-15T09:13:36;0.50;99.90
42365;DHT22;28498;54.400;18.566;2024-01-15T09:16:04;0.50;99.90
42365;DHT22;28498;54.400;18.566;2024-01-15T09:18:31;0.50;99.90
42365;DHT22;28498;54.400;18.566;2024-01-15T09:20:59;0.40;99.90
42365;DHT22;28498;54.400;18.566;2024-01-15T09:23:26;0.30;99.90
42365;DHT22;28498;54.400;18.566;2024-01-15T09:25:55;0.50;99.90
42365;DHT22;28498;54.400;18.566;2024-01-15T09:28:22;0.70;99.90
42365;DHT22;28498;54.400;18.566;2024-01-15T09:30:49;0.70;99.90
42365;DHT22;28498;54.400;18.566;2024-01-15T09:33:17;0.70;99.90
42365;DHT22;28498;54.400;18.566;2024-01-15T09:35:44;0.70;99.90
42365;DHT22;28498;54.400;18.566;2024-01-15T09:38:12;0.60;99.90
42365;DHT22;28498;54.400;18.566;2024-01-15T09:40:43;0.70;99.90
42365;DHT22;28498;54.400;18.566;2024-01-15T09:43:12;0.90;99.90
42365;DHT22;28498;54.400;18.566;2024-01-15T09:45:42;1.10;99.90
42365;DHT22;28498;54.400;18.566;2024-01-15T09:48:09;1.20;99.90
42365;DHT22;28498;54.400;18.566;2024-01-15T09:50:36;1.30;99.90
42365;DHT22;28498;54.400;18.566;2024-01-15T09:53:05;1.20;99.90
42365;DHT22;28498;54.400;18.566;2024-01-15T09:55:32;1.20;99.90
42365;DHT22;28498;54.400;18.566;2024-01-15T09:58:00;1.10;99.90
42365;DHT22;28498;54.400;18.566;2024-01-15T10:00:29;1.00;99.90
42365;DHT22;28498;54.400;18.566;2024-01-15T10:02:59;1.00;99.90
42365;DHT22;28498;54.400;18.566;2024-01-15T10:05:27;1.10;99.90
42365;DHT22;28498;54.400;18.566;2024-01-15T10:07:56;1.00;99.90
42365;DHT22;28498;54.400;18.566;2024-01-15T10:10:24;1.00;99.90
42365;DHT22;28498;54.400;18.566;2024-01-15T10:12:51;1.00;99.90
42365;DHT22;28498;54.400;18.566;2024-01-15T10:15:22;1.00;99.90
42365;DHT22;28498;54.400;18.566;2024-01-15T10:17:50;0.90;99.90
42365;DHT22;28498;54.400;18.566;2024-01-15T10:20:17;0.90;99.90
42365;DHT22;28498;54.400;18.566;2024-01-15T10:22:45;0.90;99.90
42365;DHT22;28498;54.400;18.566;2024-01-15T10:25:15;0.80;99.90
42365;DHT22;28498;54.400;18.566;2024-01-15T10:27:43;0.70;99.90
42365;DHT22;28498;54.400;18.566;2024-01-15T10:30:11;0.80;99.90
42365;DHT22;28498;54.400;18.566;2024-01-15T10:32:38;1.00;99.90
42365;DHT22;28498;54.400;18.566;2024-01-15T10:35:07;0.90;99.90
42365;DHT22;28498;54.400;18.566;2024-01-15T10:37:35;1.00;99.90
42365;DHT22;28498;54.400;18.566;2024-01-15T10:40:03;1.00;99.90
42365;DHT22;28498;54.400;18.566;2024-01-15T10:42:33;1.20;99.90
42365;DHT22;28498;54.400;18.566;2024-01-15T10:45:00;1.30;99.90
42365;DHT22;28498;54.400;18.566;2024-01-15T10:47:28;1.30;99.90
42365;DHT22;28498;54.400;18.566;2024-01-15T10:49:55;1.20;99.90
42365;DHT22;28498;54.400;18.566;2024-01-15T10:52:23;1.00;99.90
42365;DHT22;28498;54.400;18.566;2024-01-15T10:54:50;1.10;99.90
42365;DHT22;28498;54.400;18.566;2024-01-15T10:57:18;1.10;99.90
42365;DHT22;28498;54.400;18.566;2024-01-15T10:59:47;1.10;99.90
42365;DHT22;28498;54.400;18.566;2024-01-15T11:02:15;1.00;99.90
42365;DHT22;28498;54.400;18.566;2024-01-15T11:04:42;0.90;99.90
42365;DHT22;28498;54.400;18.566;2024-01-15T11:07:10;0.90;99.90
42365;DHT22;28498;54.400;18.566;2024-01-15T11:09:38;0.80;99.90
42365;DHT22;28498;54.400;18.566;2024-01-15T11:12:13;0.80;99.90
42365;DHT22;28498;54.400;18.566;2024-01-15T11:14:42;0.90;99.90
42365;DHT22;28498;54.400;18.566;2024-01-15T11:17:13;0.90;99.90
42365;DHT22;28498;54.400;18.566;2024-01-15T11:19:48;0.70;99.90
42365;DHT22;28498;54.400;18.566;2024-01-15T11:22:48;0.60;99.90
42365;DHT22;28498;54.400;18.566;2024-01-15T11:25:18;0.60;99.90
42365;DHT22;28498;54.400;18.566;2024-01-15T11:27:47;0.70;99.90
42365;DHT22;28498;54.400;18.566;2024-01-15T11:30:19;0.80;99.90
42365;DHT22;28498;54.400;18.566;2024-01-15T11:32:47;0.90;99.90
42365;DHT22;28498;54.400;18.566;2024-01-15T11:35:14;1.00;99.90
42365;DHT22;28498;54.400;18.566;2024-01-15T11:40:40;1.00;99.90
42365;DHT22;28498;54.400;18.566;2024-01-15T11:43:06;0.90;99.90
42365;DHT22;28498;54.400;18.566;2024-01-15T11:45:34;0.80;99.90
42365;DHT22;28498;54.400;18.566;2024-01-15T11:48:15;0.70;99.90
42365;DHT22;28498;54.400;18.566;2024-01-15T11:50:45;0.70;99.90
42365;DHT22;28498;54.400;18.566;2024-01-15T11:55:58;0.60;99.90
42365;DHT22;28498;54.400;18.566;2024-01-15T11:58:28;0.70;99.90
42365;DHT22;28498;54.400;18.566;2024-01-15T12:00:55;0.70;99.90
42365;DHT22;28498;54.400;18.566;2024-01-15T12:03:23;0.70;99.90
42365;DHT22;28498;54.400;18.566;2024-01-15T12:05:53;0.70;99.90
42365;DHT22;28498;54.400;18.566;2024-01-15T12:08:22;0.80;99.90
42365;DHT22;28498;54.400;18.566;2024-01-15T12:10:50;0.90;99.90
42365;DHT22;28498;54.400;18.566;2024-01-15T12:13:18;0.90;99.90
42365;DHT22;28498;54.400;18.566;2024-01-15T12:15:46;0.90;99.90
42365;DHT22;28498;54.400;18.566;2024-01-15T12:18:17;1.00;99.90
42365;DHT22;28498;54.400;18.566;2024-01-15T12:20:46;1.00;99.90
42365;DHT22;28498;54.400;18.566;2024-01-15T12:23:15;1.00;99.90
42365;DHT22;28498;54.400;18.566;2024-01-15T12:25:42;1.00;99.90
42365;DHT22;28498;54.400;18.566;2024-01-15T12:28:09;0.90;99.90
42365;DHT22;28498;54.400;18.566;2024-01-15T12:30:37;0.80;99.90
42365;DHT22;28498;54.400;18.566;2024-01-15T12:33:07;0.90;99.90
42365;DHT22;28498;54.400;18.566;2024-01-15T12:35:36;0.80;99.90
42365;DHT22;28498;54.400;18.566;2024-01-15T12:38:03;0.80;99.90
42365;DHT22;28498;54.400;18.566;2024-01-15T12:40:32;0.70;99.90
42365;DHT22;28498;54.400;18.566;2024-01-15T12:43:00;0.80;99.90
42365;DHT22;28498;54.400;18.566;2024-01-15T12:45:29;0.90;99.90
42365;DHT22;28498;54.400;18.566;2024-01-15T12:47:57;1.00;99.90
42365;DHT22;28498;54.400;18.566;2024-01-15T12:50:25;1.00;99.90
42365;DHT22;28498;54.400;18.566;2024-01-15T12:52:55;1.00;99.90
42365;DHT22;28498;54.400;18.566;2024-01-15T12:55:22;0.80;99.90
42365;DHT22;28498;54.400;18.566;2024-01-15T12:57:49;0.50;99.90
42365;DHT22;28498;54.400;18.566;2024-01-15T13:00:20;0.60;99.90
42365;DHT22;28498;54.400;18.566;2024-01-15T13:02:47;0.60;99.90
42365;DHT22;28498;54.400;18.566;2024-01-15T13:05:16;0.60;99.90
42365;DHT22;28498;54.400;18.566;2024-01-15T13:07:44;0.70;99.90
42365;DHT22;28498;54.400;18.566;2024-01-15T13:10:11;0.70;99.90
42365;DHT22;28498;54.400;18.566;2024-01-15T13:12:40;0.70;99.90
42365;DHT22;28498;54.400;18.566;2024-01-15T13:15:09;0.70;99.90
42365;DHT22;28498;54.400;18.566;2024-01-15T13:17:41;0.80;99.90
42365;DHT22;28498;54.400;18.566;2024-01-15T13:20:09;0.80;99.90
42365;DHT22;28498;54.400;18.566;2024-01-15T13:22:38;0.80;99.90
42365;DHT22;28498;54.400;18.566;2024-01-15T13:25:07;0.70;99.90
42365;DHT22;28498;54.400;18.566;2024-01-15T13:27:35;0.70;99.90
42365;DHT22;28498;54.400;18.566;2024-01-15T13:30:05;0.70;99.90
42365;DHT22;28498;54.400;18.566;2024-01-15T13:32:34;0.70;99.90
42365;DHT22;28498;54.400;18.566;2024-01-15T13:35:01;0.60;99.90
42365;DHT22;28498;54.400;18.566;2024-01-15T13:37:32;0.70;99.90
42365;DHT22;28498;54.400;18.566;2024-01-15T13:39:59;0.80;99.90
42365;DHT22;28498;54.400;18.566;2024-01-15T13:42:26;0.80;99.90
42365;DHT22;28498;54.400;18.566;2024-01-15T13:44:54;0.80;99.90
42365;DHT22;28498;54.400;18.566;2024-01-15T13:47:21;0.90;99.90
42365;DHT22;28498;54.400;18.566;2024-01-15T13:49:49;0.70;99.90
42365;DHT22;28498;54.400;18.566;2024-01-15T13:52:16;0.60;99.90
42365;DHT22;28498;54.400;18.566;2024-01-15T13:54:44;0.50;99.90
42365;DHT22;28498;54.400;18.566;2024-01-15T13:57:17;0.50;99.90
42365;DHT22;28498;54.400;18.566;2024-01-15T13:59:45;0.40;99.90
42365;DHT22;28498;54.400;18.566;2024-01-15T14:02:13;0.40;99.90
42365;DHT22;28498;54.400;18.566;2024-01-15T14:04:47;0.30;99.90
42365;DHT22;28498;54.400;18.566;2024-01-15T14:07:14;0.10;99.90
42365;DHT22;28498;54.400;18.566;2024-01-15T14:09:42;0.00;99.90
42365;DHT22;28498;54.400;18.566;2024-01-15T14:12:09;0.00;99.90
42365;DHT22;28498;54.400;18.566;2024-01-15T14:14:36;-0.20;99.90
42365;DHT22;28498;54.400;18.566;2024-01-15T14:17:04;-0.20;99.90
42365;DHT22;28498;54.400;18.566;2024-01-15T14:19:31;-0.20;99.90
42365;DHT22;28498;54.400;18.566;2024-01-15T14:21:58;-0.20;99.90
42365;DHT22;28498;54.400;18.566;2024-01-15T14:24:25;-0.30;99.90
42365;DHT22;28498;54.400;18.566;2024-01-15T14:26:52;-0.30;99.90
42365;DHT22;28498;54.400;18.566;2024-01-15T14:29:19;-0.30;99.90
42365;DHT22;28498;54.400;18.566;2024-01-15T14:31:49;-0.30;99.90
42365;DHT22;28498;54.400;18.566;2024-01-15T14:34:16;-0.40;99.90
42365;DHT22;28498;54.400;18.566;2024-01-15T14:36:45;-0.40;99.90
42365;DHT22;28498;54.400;18.566;2024-01-15T14:39:13;-0.40;99.90
42365;DHT22;28498;54.400;18.566;2024-01-15T14:41:40;-0.40;99.90
42365;DHT22;28498;54.400;18.566;2024-01-15T14:44:09;-0.40;99.90
42365;DHT22;28498;54.400;18.566;2024-01-15T14:46:36;-0.40;99.90
42365;DHT22;28498;54.400;18.566;2024-01-15T14:49:03;-0.40;99.90
42365;DHT22;28498;54.400;18.566;2024-01-15T14:51:30;-0.40;99.90
42365;DHT22;28498;54.400;18.566;2024-01-15T14:53:57;-0.30;99.90
42365;DHT22;28498;54.400;18.566;2024-01-15T14:56:24;-0.40;99.90
42365;DHT22;28498;54.400;18.566;2024-01-15T14:58:51;-0.50;99.90
42365;DHT22;28498;54.400;18.566;2024-01-15T15:01:18;-0.50;99.90
42365;DHT22;28498;54.400;18.566;2024-01-15T15:03:45;-0.50;99.90
42365;DHT22;28498;54.400;18.566;2024-01-15T15:06:12;-0.40;99.90
42365;DHT22;28498;54.400;18.566;2024-01-15T15:08:39;-0.30;99.90
42365;DHT22;28498;54.400;18.566;2024-01-15T15:11:07;-0.30;99.90
42365;DHT22;28498;54.400;18.566;2024-01-15T15:13:35;-0.30;99.90
42365;DHT22;28498;54.400;18.566;2024-01-15T15:16:11;-0.30;99.90
42365;DHT22;28498;54.400;18.566;2024-01-15T15:18:41;-0.40;99.90
42365;DHT22;28498;54.400;18.566;2024-01-15T15:21:13;-0.30;99.90
42365;DHT22;28498;54.400;18.566;2024-01-15T15:23:41;-0.30;99.90
42365;DHT22;28498;54.400;18.566;2024-01-15T15:26:08;-0.30;99.90
42365;DHT22;28498;54.400;18.566;2024-01-15T15:28:36;-0.20;99.90
42365;DHT22;28498;54.400;18.566;2024-01-15T15:31:06;-0.20;99.90
42365;DHT22;28498;54.400;18.566;2024-01-15T15:33:38;-0.10;99.90
42365;DHT22;28498;54.400;18.566;2024-01-15T15:36:05;-0.10;99.90